createdAt,value
2017-10-16T00:00:13.386Z,26.4
2017-10-16T00:01:15.038Z,26.8
2017-10-16T00:02:16.698Z,27.8
2017-10-16T00:03:18.443Z,31.3
2017-10-16T00:04:20.108Z,29.6
2017-10-16T00:05:21.759Z,23.4
2017-10-16T00:06:23.414Z,25.1
2017-10-16T00:07:25.062Z,25.4
2017-10-16T00:08:26.710Z,25.0
2017-10-16T00:09:28.503Z,23.1
2017-10-16T00:10:30.153Z,22.0
2017-10-16T00:11:31.807Z,21.6
2017-10-16T00:12:33.463Z,24.1
2017-10-16T00:13:35.119Z,23.0
2017-10-16T00:14:36.785Z,22.0
2017-10-16T00:15:38.447Z,20.0
2017-10-16T00:16:40.105Z,22.4
2017-10-16T00:17:41.773Z,21.3
2017-10-16T00:18:43.452Z,20.1
2017-10-16T00:19:45.100Z,21.1
2017-10-16T00:20:46.744Z,24.2
2017-10-16T00:21:48.389Z,20.0
2017-10-16T00:22:50.047Z,17.9
2017-10-16T00:23:51.708Z,17.1
2017-10-16T00:24:53.366Z,18.8
2017-10-16T00:25:55.018Z,16.7
2017-10-16T00:26:56.669Z,17.5
2017-10-16T00:27:58.373Z,17.6
2017-10-16T00:29:00.021Z,16.9
2017-10-16T00:30:01.667Z,17.5
2017-10-16T00:31:03.325Z,18.0
2017-10-16T00:32:04.979Z,17.8
2017-10-16T00:33:06.672Z,18.3
2017-10-16T00:34:08.320Z,17.9
2017-10-16T00:35:09.971Z,18.3
2017-10-16T00:36:11.621Z,18.3
2017-10-16T00:37:13.266Z,17.9
2017-10-16T00:38:14.947Z,18.2
2017-10-16T00:39:16.604Z,18.6
2017-10-16T00:40:18.269Z,17.8
2017-10-16T00:41:20.066Z,17.9
2017-10-16T00:42:21.794Z,17.9
2017-10-16T00:43:23.449Z,18.7
2017-10-16T00:44:25.099Z,18.6
2017-10-16T00:45:26.756Z,17.6
2017-10-16T00:46:28.411Z,19.7
2017-10-16T00:47:30.063Z,19.2
2017-10-16T00:48:31.719Z,20.6
2017-10-16T00:49:33.377Z,18.8
2017-10-16T00:50:35.031Z,19.4
2017-10-16T00:51:36.687Z,20.4
2017-10-16T00:52:38.339Z,20.0
2017-10-16T00:53:39.989Z,20.2
2017-10-16T00:54:41.644Z,20.3
2017-10-16T00:55:43.308Z,20.4
2017-10-16T00:56:44.955Z,21.2
2017-10-16T00:57:46.615Z,21.3
2017-10-16T00:58:48.263Z,21.4
2017-10-16T00:59:49.924Z,21.8
2017-10-16T01:00:51.600Z,21.3
2017-10-16T01:01:53.249Z,22.5
2017-10-16T01:02:54.977Z,21.8
2017-10-16T01:03:56.692Z,21.2
2017-10-16T01:04:58.342Z,20.0
2017-10-16T01:06:00.000Z,20.7
2017-10-16T01:07:01.655Z,20.7
2017-10-16T01:08:03.324Z,20.7
2017-10-16T01:09:04.983Z,22.1
2017-10-16T01:10:07.500Z,21.9
2017-10-16T01:11:09.152Z,21.8
2017-10-16T01:12:10.807Z,21.0
2017-10-16T01:13:12.463Z,22.1
2017-10-16T01:14:14.126Z,21.1
2017-10-16T01:15:15.774Z,21.3
2017-10-16T01:16:17.428Z,19.9
2017-10-16T01:17:19.083Z,21.2
2017-10-16T01:18:20.737Z,19.7
2017-10-16T01:19:22.424Z,21.5
2017-10-16T01:20:24.099Z,23.7
2017-10-16T01:21:25.746Z,21.5
2017-10-16T01:22:27.398Z,22.1
2017-10-16T01:23:29.068Z,23.9
2017-10-16T01:24:30.742Z,21.9
2017-10-16T01:25:32.373Z,21.4
2017-10-16T01:26:34.105Z,20.2
2017-10-16T01:27:35.764Z,19.5
2017-10-16T01:28:37.419Z,20.1
2017-10-16T01:29:39.076Z,19.8
2017-10-16T01:30:40.725Z,21.5
2017-10-16T01:31:42.376Z,20.7
2017-10-16T01:32:44.031Z,21.5
2017-10-16T01:33:45.677Z,22.3
2017-10-16T01:34:47.330Z,20.9
2017-10-16T01:35:48.977Z,20.9
2017-10-16T01:36:50.633Z,21.1
2017-10-16T01:37:52.288Z,18.4
2017-10-16T01:38:53.940Z,19.1
2017-10-16T01:39:55.599Z,18.5
2017-10-16T01:40:57.251Z,18.2
2017-10-16T01:41:58.906Z,18.9
2017-10-16T01:43:00.559Z,18.6
2017-10-16T01:44:02.220Z,17.9
2017-10-16T01:45:03.881Z,18.5
2017-10-16T01:46:05.539Z,20.4
2017-10-16T01:47:07.225Z,21.5
2017-10-16T01:48:08.880Z,21.5
2017-10-16T01:49:10.534Z,21.5
2017-10-16T01:50:12.215Z,23.0
2017-10-16T01:51:13.886Z,23.8
2017-10-16T01:52:15.537Z,24.9
2017-10-16T01:53:17.198Z,25.3
2017-10-16T01:54:18.859Z,23.8
2017-10-16T01:55:20.507Z,24.4
2017-10-16T02:01:42.679Z,21.8
2017-10-16T02:02:44.476Z,25.6
2017-10-16T02:03:46.130Z,35.2
2017-10-16T02:04:47.792Z,32.5
2017-10-16T02:05:49.441Z,27.3
2017-10-16T02:06:51.089Z,30.2
2017-10-16T02:07:52.743Z,27.0
2017-10-16T02:08:54.455Z,29.8
2017-10-16T02:09:56.116Z,77.1
2017-10-16T02:10:57.763Z,70.7
2017-10-16T02:11:59.409Z,70.6
2017-10-16T02:13:01.057Z,60.3
2017-10-16T02:14:02.748Z,51.8
2017-10-16T02:15:04.375Z,48.6
2017-10-16T02:16:06.032Z,42.4
2017-10-16T02:17:07.700Z,72.5
2017-10-16T02:18:09.364Z,36.7
2017-10-16T02:19:11.026Z,34.9
2017-10-16T02:20:12.691Z,34.8
2017-10-16T02:21:14.349Z,38.0
2017-10-16T02:22:15.996Z,36.9
2017-10-16T02:23:17.652Z,30.5
2017-10-16T02:24:19.301Z,32.6
2017-10-16T02:25:20.961Z,32.4
2017-10-16T02:26:22.627Z,37.9
2017-10-16T02:27:24.371Z,42.4
2017-10-16T02:28:26.020Z,42.3
2017-10-16T02:29:27.684Z,47.3
2017-10-16T02:30:29.339Z,44.8
2017-10-16T02:31:30.999Z,37.4
2017-10-16T02:32:32.652Z,38.4
2017-10-16T02:33:34.309Z,40.1
2017-10-16T02:34:35.968Z,39.9
2017-10-16T02:35:37.618Z,41.3
2017-10-16T02:36:39.271Z,38.0
2017-10-16T02:37:40.931Z,43.8
2017-10-16T02:38:42.594Z,41.1
2017-10-16T02:39:44.245Z,38.9
2017-10-16T02:40:45.905Z,38.5
2017-10-16T02:41:47.565Z,37.6
2017-10-16T02:42:49.222Z,40.9
2017-10-16T02:43:50.869Z,39.4
2017-10-16T02:44:52.533Z,39.2
2017-10-16T02:45:54.178Z,38.3
2017-10-16T02:46:55.839Z,37.7
2017-10-16T02:47:57.583Z,35.3
2017-10-16T02:48:59.231Z,37.3
2017-10-16T02:50:00.883Z,36.8
2017-10-16T02:51:02.538Z,38.1
2017-10-16T02:52:04.203Z,40.0
2017-10-16T02:53:05.881Z,35.0
2017-10-16T02:54:07.530Z,34.9
2017-10-16T02:55:09.187Z,36.0
2017-10-16T02:56:10.838Z,35.0
2017-10-16T02:57:12.502Z,35.9
2017-10-16T02:58:14.160Z,31.2
2017-10-16T02:59:15.811Z,32.8
2017-10-16T03:00:17.460Z,33.8
2017-10-16T03:01:19.159Z,36.9
2017-10-16T03:02:20.816Z,39.4
2017-10-16T03:03:22.469Z,40.0
2017-10-16T03:04:24.150Z,46.2
2017-10-16T03:05:25.965Z,40.3
2017-10-16T03:06:27.617Z,36.6
2017-10-16T03:07:29.266Z,35.8
2017-10-16T03:08:30.922Z,37.3
2017-10-16T03:09:32.581Z,39.2
2017-10-16T03:10:34.236Z,37.9
2017-10-16T03:11:35.890Z,46.0
2017-10-16T03:12:37.818Z,50.5
2017-10-16T03:13:39.790Z,56.0
2017-10-16T03:14:41.759Z,42.1
2017-10-16T03:15:43.389Z,39.6
2017-10-16T03:16:45.067Z,39.6
2017-10-16T03:17:46.717Z,38.6
2017-10-16T03:18:48.375Z,47.7
2017-10-16T03:19:50.478Z,45.7
2017-10-16T03:20:52.237Z,48.4
2017-10-16T03:21:53.893Z,43.7
2017-10-16T03:22:55.610Z,47.1
2017-10-16T03:23:57.255Z,45.1
2017-10-16T03:24:58.905Z,45.3
2017-10-16T03:26:00.567Z,41.3
2017-10-16T03:27:02.220Z,49.0
2017-10-16T03:28:03.880Z,44.2
2017-10-16T03:29:05.539Z,40.6
2017-10-16T03:30:07.201Z,40.0
2017-10-16T03:31:08.857Z,41.8
2017-10-16T03:32:10.521Z,39.0
2017-10-16T03:33:12.169Z,38.7
2017-10-16T03:34:13.847Z,41.9
2017-10-16T03:35:15.512Z,39.9
2017-10-16T03:36:17.171Z,43.7
2017-10-16T03:37:18.835Z,46.4
2017-10-16T03:38:20.486Z,51.8
2017-10-16T03:39:22.143Z,44.4
2017-10-16T03:40:23.822Z,49.6
2017-10-16T03:41:25.489Z,52.5
2017-10-16T03:42:27.153Z,52.6
2017-10-16T03:43:28.806Z,48.4
2017-10-16T03:44:30.464Z,53.6
2017-10-16T03:45:32.129Z,51.0
2017-10-16T03:46:33.804Z,44.8
2017-10-16T03:47:35.438Z,43.1
2017-10-16T03:48:37.109Z,38.5
2017-10-16T03:49:38.757Z,39.7
2017-10-16T03:50:40.414Z,37.4
2017-10-16T03:51:42.071Z,42.4
2017-10-16T03:52:43.726Z,43.5
2017-10-16T03:53:45.388Z,42.9
2017-10-16T03:54:47.057Z,45.4
2017-10-16T03:55:48.715Z,44.0
2017-10-16T03:56:50.372Z,50.1
2017-10-16T03:57:52.037Z,41.5
2017-10-16T03:58:53.692Z,42.6
2017-10-16T03:59:55.351Z,40.4
2017-10-16T04:00:57.001Z,43.1
2017-10-16T04:01:58.680Z,47.4
2017-10-16T04:03:00.408Z,44.3
2017-10-16T04:04:02.070Z,47.1
2017-10-16T04:05:03.748Z,44.8
2017-10-16T04:06:05.405Z,65.4
2017-10-16T04:07:07.076Z,44.8
2017-10-16T04:08:08.761Z,37.3
2017-10-16T04:09:10.408Z,35.7
2017-10-16T04:10:12.073Z,32.8
2017-10-16T04:11:13.738Z,35.2
2017-10-16T04:12:15.403Z,37.5
2017-10-16T04:13:17.076Z,34.2
2017-10-16T04:14:18.762Z,35.1
2017-10-16T04:15:20.414Z,40.0
2017-10-16T04:16:22.069Z,38.0
2017-10-16T04:17:23.770Z,42.5
2017-10-16T04:18:25.393Z,46.1
2017-10-16T04:19:27.372Z,52.1
2017-10-16T04:20:29.021Z,49.4
2017-10-16T04:21:30.732Z,44.4
2017-10-16T04:22:32.383Z,48.8
2017-10-16T04:23:34.050Z,43.3
2017-10-16T04:24:35.697Z,54.2
2017-10-16T04:25:37.361Z,48.8
2017-10-16T04:26:39.013Z,51.7
2017-10-16T04:27:40.663Z,64.9
2017-10-16T04:28:42.320Z,43.9
2017-10-16T04:29:43.977Z,38.0
2017-10-16T04:30:45.647Z,39.0
2017-10-16T04:31:47.293Z,50.5
2017-10-16T04:32:48.955Z,42.9
2017-10-16T04:33:50.605Z,48.6
2017-10-16T04:34:52.273Z,44.6
2017-10-16T04:35:53.930Z,42.9
2017-10-16T04:36:55.603Z,46.7
2017-10-16T04:37:57.257Z,51.9
2017-10-16T04:38:58.911Z,41.4
2017-10-16T04:40:00.568Z,42.0
2017-10-16T04:41:02.223Z,46.3
2017-10-16T04:42:03.894Z,50.2
2017-10-16T04:43:05.557Z,46.3
2017-10-16T04:44:07.208Z,55.7
2017-10-16T04:45:08.857Z,51.5
2017-10-16T04:46:10.547Z,52.5
2017-10-16T04:47:12.178Z,55.0
2017-10-16T04:48:13.830Z,54.0
2017-10-16T04:49:15.485Z,51.2
2017-10-16T04:50:17.276Z,52.4
2017-10-16T04:51:18.928Z,50.1
2017-10-16T04:52:20.644Z,43.8
2017-10-16T04:53:22.330Z,38.5
2017-10-16T04:54:24.027Z,41.4
2017-10-16T04:55:25.696Z,38.7
2017-10-16T04:56:27.419Z,43.6
2017-10-16T04:57:29.074Z,50.8
2017-10-16T04:58:30.731Z,45.8
2017-10-16T04:59:32.392Z,50.0
2017-10-16T05:00:34.205Z,42.9
2017-10-16T05:01:35.860Z,45.1
2017-10-16T05:02:37.516Z,41.0
2017-10-16T05:03:39.163Z,47.7
2017-10-16T05:04:40.827Z,83.4
2017-10-16T05:05:42.475Z,65.2
2017-10-16T05:06:44.152Z,56.4
2017-10-16T05:07:45.801Z,79.5
2017-10-16T05:08:47.469Z,52.8
2017-10-16T05:09:49.136Z,60.6
2017-10-16T05:10:50.776Z,40.6
2017-10-16T05:11:52.436Z,55.7
2017-10-16T05:12:54.098Z,49.2
2017-10-16T05:13:55.822Z,59.4
2017-10-16T05:14:57.499Z,52.3
2017-10-16T05:15:59.147Z,63.7
2017-10-16T05:17:00.812Z,40.4
2017-10-16T05:18:02.456Z,41.8
2017-10-16T05:19:04.118Z,37.6
2017-10-16T05:20:05.782Z,40.1
2017-10-16T05:21:07.432Z,42.0
2017-10-16T05:22:09.155Z,43.5
2017-10-16T05:23:10.803Z,44.1
2017-10-16T05:24:12.466Z,42.7
2017-10-16T05:25:14.120Z,39.7
2017-10-16T05:26:15.786Z,35.0
2017-10-16T05:27:17.438Z,34.9
2017-10-16T05:28:19.099Z,39.9
2017-10-16T05:29:20.768Z,41.5
2017-10-16T05:30:22.426Z,48.1
2017-10-16T05:31:24.108Z,46.7
2017-10-16T05:32:25.813Z,42.6
2017-10-16T05:33:27.516Z,40.1
2017-10-16T05:34:29.263Z,44.1
2017-10-16T05:35:30.921Z,47.4
2017-10-16T05:36:32.577Z,49.2
2017-10-16T05:37:34.230Z,42.5
2017-10-16T05:38:35.884Z,42.4
2017-10-16T05:39:37.536Z,44.5
2017-10-16T05:40:39.200Z,43.6
2017-10-16T05:41:40.851Z,39.9
2017-10-16T05:42:42.506Z,35.9
2017-10-16T05:43:44.162Z,41.7
2017-10-16T05:44:45.846Z,36.9
2017-10-16T05:45:47.505Z,43.0
2017-10-16T05:46:49.168Z,40.3
2017-10-16T05:47:50.829Z,36.3
2017-10-16T05:48:52.480Z,38.5
2017-10-16T05:49:54.160Z,34.3
2017-10-16T05:50:55.810Z,37.7
2017-10-16T05:51:57.479Z,36.3
2017-10-16T05:52:59.139Z,33.2
2017-10-16T05:54:00.796Z,34.4
2017-10-16T05:55:02.454Z,38.2
2017-10-16T06:01:17.668Z,29.0
2017-10-16T06:02:19.328Z,29.4
2017-10-16T06:04:11.238Z,32.6
2017-10-16T06:05:12.900Z,33.2
2017-10-16T06:06:14.559Z,33.2
2017-10-16T06:07:16.225Z,35.3
2017-10-16T06:08:17.880Z,33.9
2017-10-16T06:09:19.546Z,31.2
2017-10-16T06:10:21.193Z,33.2
2017-10-16T06:11:22.898Z,33.6
2017-10-16T06:12:24.588Z,33.8
2017-10-16T06:13:26.249Z,36.2
2017-10-16T06:14:27.943Z,34.7
2017-10-16T06:15:29.594Z,34.2
2017-10-16T06:16:31.257Z,32.8
2017-10-16T06:17:32.929Z,39.8
2017-10-16T06:18:34.599Z,40.1
2017-10-16T06:19:36.275Z,37.3
2017-10-16T06:20:37.934Z,36.0
2017-10-16T06:21:39.633Z,39.2
2017-10-16T06:22:41.303Z,34.9
2017-10-16T06:23:42.957Z,38.9
2017-10-16T06:24:44.838Z,40.2
2017-10-16T06:25:46.504Z,36.6
2017-10-16T06:26:48.156Z,37.6
2017-10-16T06:27:49.924Z,42.5
2017-10-16T06:28:51.616Z,38.8
2017-10-16T06:29:53.273Z,36.4
2017-10-16T06:30:54.939Z,35.6
2017-10-16T06:31:56.600Z,34.1
2017-10-16T06:32:58.301Z,33.3
2017-10-16T06:33:59.956Z,31.5
2017-10-16T06:35:01.613Z,30.7
2017-10-16T06:36:03.276Z,31.6
2017-10-16T06:37:04.952Z,32.9
2017-10-16T06:38:06.603Z,40.3
2017-10-16T06:39:08.267Z,50.8
2017-10-16T06:40:09.926Z,31.8
2017-10-16T06:41:13.013Z,32.0
2017-10-16T06:42:14.672Z,36.8
2017-10-16T06:43:16.331Z,33.2
2017-10-16T06:44:18.000Z,32.1
2017-10-16T06:45:19.662Z,34.9
2017-10-16T06:46:21.395Z,33.1
2017-10-16T06:47:23.149Z,29.2
2017-10-16T06:48:24.840Z,27.6
2017-10-16T06:49:26.502Z,27.2
2017-10-16T06:50:28.163Z,26.5
2017-10-16T06:51:29.825Z,25.7
2017-10-16T06:52:31.483Z,26.4
2017-10-16T06:53:33.145Z,27.0
2017-10-16T06:54:34.817Z,26.6
2017-10-16T06:55:36.486Z,24.2
2017-10-16T06:56:38.146Z,25.9
2017-10-16T06:57:39.810Z,24.6
2017-10-16T06:58:41.460Z,24.1
2017-10-16T06:59:43.127Z,32.8
2017-10-16T07:00:44.987Z,28.4
2017-10-16T07:01:46.657Z,32.1
2017-10-16T07:02:48.305Z,28.5
2017-10-16T07:03:49.959Z,24.0
2017-10-16T07:04:51.621Z,24.2
2017-10-16T07:05:53.288Z,25.3
2017-10-16T07:06:54.949Z,25.4
2017-10-16T07:07:56.615Z,25.0
2017-10-16T07:08:58.567Z,23.7
2017-10-16T07:10:22.130Z,23.7
2017-10-16T07:11:38.604Z,23.4
2017-10-16T07:12:40.274Z,23.2
2017-10-16T07:13:41.978Z,24.7
2017-10-16T07:14:47.601Z,24.5
2017-10-16T07:15:49.216Z,23.8
2017-10-16T07:16:50.921Z,23.4
2017-10-16T07:17:52.595Z,26.7
2017-10-16T07:18:54.258Z,26.1
2017-10-16T07:19:55.921Z,23.6
2017-10-16T07:20:57.585Z,24.9
2017-10-16T07:21:59.252Z,24.9
2017-10-16T07:23:00.933Z,26.5
2017-10-16T07:24:02.598Z,25.2
2017-10-16T07:25:04.255Z,24.7
2017-10-16T07:26:05.982Z,25.5
2017-10-16T07:27:07.618Z,25.3
2017-10-16T07:28:09.275Z,23.9
2017-10-16T07:29:10.941Z,22.7
2017-10-16T07:30:12.602Z,21.8
2017-10-16T07:31:14.281Z,21.7
2017-10-16T07:32:15.947Z,21.8
2017-10-16T07:33:17.603Z,21.3
2017-10-16T07:34:19.283Z,21.9
2017-10-16T07:35:20.940Z,21.0
2017-10-16T07:36:22.600Z,21.5
2017-10-16T07:37:24.288Z,22.5
2017-10-16T07:38:25.957Z,21.1
2017-10-16T07:39:27.622Z,20.4
2017-10-16T07:40:29.322Z,19.8
2017-10-16T07:41:31.020Z,20.2
2017-10-16T07:42:32.680Z,20.9
2017-10-16T07:43:34.345Z,22.6
2017-10-16T07:44:36.003Z,23.5
2017-10-16T07:45:37.666Z,22.2
2017-10-16T07:46:39.330Z,22.6
2017-10-16T07:47:41.006Z,21.6
2017-10-16T07:48:42.674Z,21.5
2017-10-16T07:49:44.342Z,20.9
2017-10-16T07:50:46.004Z,19.9
2017-10-16T07:51:47.669Z,20.4
2017-10-16T07:52:49.335Z,18.7
2017-10-16T07:53:51.024Z,19.6
2017-10-16T07:54:52.687Z,19.5
2017-10-16T07:55:54.399Z,18.5
2017-10-16T07:56:56.075Z,17.6
2017-10-16T07:57:57.743Z,17.2
2017-10-16T07:58:59.418Z,17.4
2017-10-16T08:00:01.106Z,16.5
2017-10-16T08:01:02.799Z,18.6
2017-10-16T08:02:04.467Z,20.8
2017-10-16T08:03:06.151Z,18.5
2017-10-16T08:04:07.867Z,19.3
2017-10-16T08:05:09.534Z,17.8
2017-10-16T08:06:11.235Z,16.6
2017-10-16T08:07:12.905Z,16.5
2017-10-16T08:08:14.573Z,16.1
2017-10-16T08:09:16.237Z,14.6
2017-10-16T08:10:17.912Z,15.1
2017-10-16T08:11:19.580Z,13.8
2017-10-16T08:12:21.247Z,13.7
2017-10-16T08:13:22.910Z,13.1
2017-10-16T08:14:24.610Z,13.7
2017-10-16T08:15:26.277Z,13.3
2017-10-16T08:16:27.957Z,12.9
2017-10-16T08:17:29.621Z,12.7
2017-10-16T08:18:31.287Z,13.3
2017-10-16T08:19:32.947Z,13.2
2017-10-16T08:20:34.643Z,12.0
2017-10-16T08:21:36.338Z,12.0
2017-10-16T08:22:38.023Z,12.8
2017-10-16T08:23:39.696Z,13.0
2017-10-16T08:24:41.367Z,12.6
2017-10-16T08:25:43.024Z,12.7
2017-10-16T08:26:44.835Z,12.1
2017-10-16T08:27:46.596Z,12.9
2017-10-16T08:28:48.292Z,10.7
2017-10-16T08:29:49.968Z,12.1
2017-10-16T08:30:51.630Z,11.5
2017-10-16T08:31:53.317Z,10.9
2017-10-16T08:32:54.984Z,9.7
2017-10-16T08:33:56.697Z,10.9
2017-10-16T08:34:58.368Z,11.3
2017-10-16T08:36:00.174Z,10.2
2017-10-16T08:37:01.834Z,10.5
2017-10-16T08:38:03.504Z,10.8
2017-10-16T08:39:05.260Z,10.0
2017-10-16T08:40:06.937Z,10.7
2017-10-16T08:41:08.752Z,11.0
2017-10-16T08:42:10.500Z,10.7
2017-10-16T08:43:12.228Z,11.2
2017-10-16T08:44:13.923Z,10.6
2017-10-16T08:45:15.631Z,10.0
2017-10-16T08:46:17.322Z,10.7
2017-10-16T08:47:19.035Z,12.0
2017-10-16T08:48:20.949Z,11.9
2017-10-16T08:49:22.652Z,11.6
2017-10-16T08:50:24.347Z,12.7
2017-10-16T08:51:26.019Z,12.3
2017-10-16T08:52:27.736Z,12.3
2017-10-16T08:53:29.433Z,13.8
2017-10-16T08:54:31.101Z,14.7
2017-10-16T08:55:32.901Z,13.6
2017-10-16T08:56:34.584Z,13.1
2017-10-16T08:57:36.336Z,14.2
2017-10-16T08:58:38.013Z,14.6
2017-10-16T08:59:39.687Z,14.2
2017-10-16T09:00:41.364Z,14.7
2017-10-16T09:01:43.051Z,14.7
2017-10-16T09:02:44.725Z,13.9
2017-10-16T09:03:46.463Z,14.4
2017-10-16T09:04:48.133Z,14.3
2017-10-16T09:05:49.801Z,14.9
2017-10-16T09:06:51.481Z,15.5
2017-10-16T09:07:53.307Z,14.1
2017-10-16T09:08:55.094Z,15.2
2017-10-16T09:09:56.867Z,14.1
2017-10-16T09:10:58.549Z,14.3
2017-10-16T09:12:00.220Z,14.0
2017-10-16T09:13:01.887Z,14.2
2017-10-16T09:14:03.545Z,14.0
2017-10-16T09:15:05.216Z,14.4
2017-10-16T09:16:06.877Z,13.9
2017-10-16T09:17:08.545Z,15.0
2017-10-16T09:18:10.211Z,14.3
2017-10-16T09:19:11.879Z,15.2
2017-10-16T09:20:13.543Z,14.6
2017-10-16T09:21:15.208Z,15.4
2017-10-16T09:22:16.997Z,15.2
2017-10-16T09:23:18.673Z,14.7
2017-10-16T09:24:20.376Z,16.4
2017-10-16T09:25:22.060Z,16.0
2017-10-16T09:26:24.041Z,15.4
2017-10-16T09:27:25.713Z,14.3
2017-10-16T09:28:27.391Z,15.8
2017-10-16T09:29:29.062Z,15.1
2017-10-16T09:30:30.721Z,15.5
2017-10-16T09:31:32.407Z,14.9
2017-10-16T09:32:34.070Z,15.2
2017-10-16T09:33:35.739Z,15.7
2017-10-16T09:34:37.408Z,15.6
2017-10-16T09:35:39.113Z,15.1
2017-10-16T09:36:40.785Z,15.3
2017-10-16T09:37:42.439Z,14.9
2017-10-16T09:38:44.112Z,14.7
2017-10-16T09:39:45.784Z,14.2
2017-10-16T09:40:47.453Z,14.1
2017-10-16T09:41:49.129Z,13.5
2017-10-16T09:42:50.802Z,13.8
2017-10-16T09:43:52.475Z,13.8
2017-10-16T09:44:54.141Z,13.7
2017-10-16T09:45:55.882Z,13.8
2017-10-16T09:46:57.547Z,14.0
2017-10-16T09:47:59.246Z,13.0
2017-10-16T09:49:00.918Z,13.7
2017-10-16T09:50:02.588Z,13.7
2017-10-16T09:51:04.255Z,12.5
2017-10-16T09:52:05.921Z,13.6
2017-10-16T09:53:07.616Z,13.7
2017-10-16T09:54:09.280Z,13.5
2017-10-16T09:55:10.972Z,15.1
2017-10-16T09:56:12.710Z,13.7
2017-10-16T10:02:07.046Z,12.2
2017-10-16T10:03:08.711Z,12.6
2017-10-16T10:04:10.371Z,14.2
2017-10-16T10:05:12.050Z,14.4
2017-10-16T10:06:13.718Z,14.3
2017-10-16T10:07:15.411Z,14.7
2017-10-16T10:08:17.111Z,14.5
2017-10-16T10:09:18.790Z,14.6
2017-10-16T10:10:20.496Z,14.3
2017-10-16T10:11:22.186Z,13.8
2017-10-16T10:12:23.934Z,13.5
2017-10-16T10:13:25.602Z,13.7
2017-10-16T10:14:27.364Z,12.8
2017-10-16T10:15:29.048Z,13.0
2017-10-16T10:16:30.722Z,13.9
2017-10-16T10:17:32.402Z,13.2
2017-10-16T10:18:34.068Z,13.7
2017-10-16T10:19:35.731Z,13.9
2017-10-16T10:20:37.397Z,13.9
2017-10-16T10:21:39.115Z,13.9
2017-10-16T10:22:40.794Z,13.4
2017-10-16T10:23:42.467Z,14.4
2017-10-16T10:24:44.193Z,14.0
2017-10-16T10:25:45.877Z,13.8
2017-10-16T10:26:47.547Z,14.2
2017-10-16T10:27:49.236Z,13.7
2017-10-16T10:28:50.926Z,13.2
2017-10-16T10:29:52.585Z,13.7
2017-10-16T10:30:54.265Z,13.9
2017-10-16T10:31:55.948Z,13.0
2017-10-16T10:32:57.618Z,13.0
2017-10-16T10:33:59.448Z,13.7
2017-10-16T10:35:01.165Z,14.5
2017-10-16T10:36:03.021Z,14.8
2017-10-16T10:37:04.683Z,13.9
2017-10-16T10:38:06.359Z,13.8
2017-10-16T10:39:08.061Z,13.5
2017-10-16T10:40:09.753Z,12.7
2017-10-16T10:41:11.441Z,12.7
2017-10-16T10:42:13.119Z,12.3
2017-10-16T10:43:14.846Z,13.2
2017-10-16T10:44:16.517Z,11.8
2017-10-16T10:45:18.252Z,12.9
2017-10-16T10:46:19.928Z,13.1
2017-10-16T10:47:21.616Z,13.3
2017-10-16T10:48:23.291Z,13.0
2017-10-16T10:49:24.990Z,13.8
2017-10-16T10:50:26.666Z,13.6
2017-10-16T10:51:28.344Z,13.3
2017-10-16T10:52:30.014Z,13.8
2017-10-16T10:53:31.708Z,13.1
2017-10-16T10:54:33.438Z,13.1
2017-10-16T10:55:35.116Z,14.1
2017-10-16T10:56:36.783Z,12.9
2017-10-16T10:57:38.460Z,12.3
2017-10-16T10:58:40.139Z,12.6
2017-10-16T10:59:41.827Z,11.9
2017-10-16T11:00:43.531Z,12.5
2017-10-16T11:01:45.203Z,13.8
2017-10-16T11:02:46.876Z,12.8
2017-10-16T11:03:48.570Z,13.2
2017-10-16T11:04:50.293Z,13.9
2017-10-16T11:05:52.543Z,13.2
2017-10-16T11:06:54.224Z,12.7
2017-10-16T11:07:55.918Z,13.0
2017-10-16T11:08:57.586Z,13.3
2017-10-16T11:09:59.263Z,12.2
2017-10-16T11:11:00.983Z,12.6
2017-10-16T11:12:02.666Z,12.6
2017-10-16T11:13:04.348Z,11.7
2017-10-16T11:14:06.041Z,12.5
2017-10-16T11:15:07.748Z,12.4
2017-10-16T11:16:09.421Z,13.0
2017-10-16T11:17:11.104Z,12.5
2017-10-16T11:18:12.781Z,11.5
2017-10-16T11:19:14.471Z,12.6
2017-10-16T11:20:16.208Z,12.5
2017-10-16T11:21:17.890Z,12.2
2017-10-16T11:22:19.641Z,12.8
2017-10-16T11:23:21.369Z,11.9
2017-10-16T11:24:23.100Z,11.7
2017-10-16T11:25:24.775Z,11.8
2017-10-16T11:26:26.448Z,12.1
2017-10-16T11:27:28.154Z,12.6
2017-10-16T11:28:29.845Z,12.0
2017-10-16T11:29:31.535Z,10.8
2017-10-16T11:30:33.211Z,11.2
2017-10-16T11:31:34.903Z,12.2
2017-10-16T11:32:36.584Z,12.2
2017-10-16T11:33:38.276Z,10.7
2017-10-16T11:34:39.968Z,12.3
2017-10-16T11:35:41.702Z,11.8
2017-10-16T11:36:43.395Z,12.0
2017-10-16T11:37:45.086Z,11.8
2017-10-16T11:38:46.752Z,11.4
2017-10-16T11:39:48.444Z,11.5
2017-10-16T11:40:50.158Z,12.3
2017-10-16T11:41:51.845Z,11.0
2017-10-16T11:42:53.537Z,11.4
2017-10-16T11:43:55.251Z,11.7
2017-10-16T11:44:56.930Z,10.9
2017-10-16T11:45:58.631Z,10.6
2017-10-16T11:47:00.321Z,11.3
2017-10-16T11:48:02.010Z,10.7
2017-10-16T11:49:03.707Z,10.3
2017-10-16T11:50:05.383Z,10.0
2017-10-16T11:51:07.100Z,10.1
2017-10-16T11:52:08.779Z,10.1
2017-10-16T11:53:10.469Z,10.4
2017-10-16T11:54:12.150Z,10.3
2017-10-16T11:55:13.830Z,9.9
2017-10-16T11:56:15.511Z,10.1
2017-10-16T11:57:17.198Z,9.5
2017-10-16T11:58:18.965Z,10.4
2017-10-16T11:59:20.680Z,9.8
2017-10-16T12:00:22.372Z,9.8
2017-10-16T12:01:24.088Z,9.9
2017-10-16T12:02:25.763Z,10.2
2017-10-16T12:03:27.494Z,9.5
2017-10-16T12:04:29.191Z,9.4
2017-10-16T12:05:30.865Z,9.7
2017-10-16T12:06:32.558Z,9.7
2017-10-16T12:07:34.223Z,10.1
2017-10-16T12:08:35.917Z,9.3
2017-10-16T12:09:37.692Z,9.5
2017-10-16T12:10:39.443Z,9.8
2017-10-16T12:11:41.132Z,9.6
2017-10-16T12:12:42.806Z,9.2
2017-10-16T12:13:44.494Z,9.2
2017-10-16T12:14:46.165Z,9.1
2017-10-16T12:15:47.842Z,10.2
2017-10-16T12:16:49.525Z,9.3
2017-10-16T12:17:51.272Z,9.9
2017-10-16T12:18:52.960Z,10.0
2017-10-16T12:19:54.728Z,10.0
2017-10-16T12:20:56.412Z,9.4
2017-10-16T12:21:58.129Z,9.3
2017-10-16T12:22:59.818Z,9.5
2017-10-16T12:24:01.496Z,9.3
2017-10-16T12:25:03.171Z,9.8
2017-10-16T12:26:04.921Z,9.3
2017-10-16T12:27:06.598Z,9.2
2017-10-16T12:28:08.271Z,10.0
2017-10-16T12:29:10.028Z,9.5
2017-10-16T12:30:11.700Z,10.6
2017-10-16T12:31:13.405Z,9.7
2017-10-16T12:32:15.078Z,9.2
2017-10-16T12:33:16.752Z,9.9
2017-10-16T12:34:18.517Z,9.9
2017-10-16T12:35:20.205Z,9.1
2017-10-16T12:36:21.876Z,9.6
2017-10-16T12:37:23.552Z,10.0
2017-10-16T12:38:25.242Z,9.9
2017-10-16T12:39:26.917Z,9.1
2017-10-16T12:40:28.613Z,9.8
2017-10-16T12:41:30.290Z,10.3
2017-10-16T12:42:33.169Z,9.7
2017-10-16T12:43:34.845Z,9.9
2017-10-16T12:44:36.536Z,9.2
2017-10-16T12:45:38.210Z,9.0
2017-10-16T12:46:39.918Z,9.0
2017-10-16T12:47:41.595Z,9.2
2017-10-16T12:48:43.266Z,9.2
2017-10-16T12:49:44.946Z,9.0
2017-10-16T12:50:46.656Z,9.2
2017-10-16T12:51:48.333Z,8.8
2017-10-16T12:52:50.008Z,8.7
2017-10-16T12:53:51.691Z,8.7
2017-10-16T12:54:53.427Z,8.5
2017-10-16T12:55:55.121Z,8.3
2017-10-16T12:56:56.837Z,8.3
2017-10-16T12:57:58.572Z,9.2
2017-10-16T12:59:00.247Z,9.5
2017-10-16T13:00:01.920Z,8.8
2017-10-16T13:01:03.606Z,9.3
2017-10-16T13:02:07.696Z,9.3
2017-10-16T13:03:09.299Z,9.0
2017-10-16T13:04:11.121Z,8.8
2017-10-16T13:05:12.835Z,9.6
2017-10-16T13:06:14.523Z,9.2
2017-10-16T13:07:16.195Z,8.9
2017-10-16T13:08:17.905Z,9.1
2017-10-16T13:09:19.600Z,8.8
2017-10-16T13:10:21.477Z,8.0
2017-10-16T13:11:23.187Z,8.6
2017-10-16T13:12:24.898Z,8.8
2017-10-16T13:13:26.589Z,8.6
2017-10-16T13:14:28.307Z,8.8
2017-10-16T13:15:29.995Z,9.2
2017-10-16T13:16:31.725Z,8.6
2017-10-16T13:17:34.040Z,8.9
2017-10-16T13:18:35.745Z,8.5
2017-10-16T13:19:37.501Z,9.3
2017-10-16T13:20:39.138Z,8.9
2017-10-16T13:21:40.822Z,8.7
2017-10-16T13:22:42.506Z,8.5
2017-10-16T13:23:44.367Z,8.4
2017-10-16T13:24:46.042Z,8.5
2017-10-16T13:25:47.713Z,8.6
2017-10-16T13:26:49.559Z,8.6
2017-10-16T13:27:51.252Z,8.6
2017-10-16T13:28:53.249Z,8.2
2017-10-16T13:29:54.934Z,8.2
2017-10-16T13:30:56.816Z,8.5
2017-10-16T13:31:58.486Z,7.5
2017-10-16T13:33:00.162Z,7.6
2017-10-16T13:34:02.016Z,8.1
2017-10-16T13:35:04.110Z,7.8
2017-10-16T13:36:05.777Z,8.1
2017-10-16T13:37:07.462Z,9.0
2017-10-16T13:38:09.406Z,8.3
2017-10-16T13:39:11.089Z,8.4
2017-10-16T13:40:12.769Z,9.1
2017-10-16T13:41:14.443Z,8.5
2017-10-16T13:42:16.641Z,7.7
2017-10-16T13:43:18.319Z,7.9
2017-10-16T13:44:20.004Z,8.1
2017-10-16T13:45:21.690Z,8.5
2017-10-16T13:46:27.095Z,7.9
2017-10-16T13:47:29.089Z,7.6
2017-10-16T13:48:36.648Z,8.4
2017-10-16T13:49:38.347Z,8.1
2017-10-16T13:50:40.376Z,8.5
2017-10-16T13:51:42.040Z,7.6
2017-10-16T13:52:44.966Z,7.4
2017-10-16T13:53:46.646Z,8.3
2017-10-16T13:54:49.076Z,8.3
2017-10-16T14:01:38.606Z,7.6
2017-10-16T14:02:41.047Z,8.2
2017-10-16T14:03:42.801Z,8.3
2017-10-16T14:04:44.479Z,8.5
2017-10-16T14:05:46.171Z,8.5
2017-10-16T14:06:47.956Z,9.3
2017-10-16T14:07:52.482Z,9.5